createdAt,value
2022-08-22T00:02:08.922Z,20.52
2022-08-22T00:02:47.663Z,22.29
2022-08-22T00:02:49.120Z,21.16
2022-08-22T00:02:54.996Z,21.16
2022-08-22T00:02:56.596Z,21.20
2022-08-22T00:03:00.232Z,21.04
2022-08-22T00:03:08.826Z,20.72
2022-08-22T00:04:41.763Z,20.43
2022-08-22T00:07:18.161Z,20.36
2022-08-22T00:09:58.461Z,20.32
2022-08-22T00:12:45.085Z,20.31
2022-08-22T00:15:42.077Z,20.34
2022-08-22T00:18:11.418Z,20.32
2022-08-22T00:20:49.481Z,20.29
2022-08-22T00:23:20.618Z,20.31
2022-08-22T00:25:54.591Z,20.37
2022-08-22T00:28:30.040Z,20.40
2022-08-22T00:30:58.155Z,20.45
2022-08-22T00:33:30.741Z,20.53
2022-08-22T00:36:05.605Z,20.54
2022-08-22T00:38:41.297Z,20.57
2022-08-22T00:41:28.939Z,20.63
2022-08-22T00:43:56.655Z,20.67
2022-08-22T00:46:24.395Z,20.63
2022-08-22T00:48:52.130Z,20.57
2022-08-22T00:51:22.641Z,20.48
2022-08-22T00:54:06.853Z,20.36
2022-08-22T00:56:55.761Z,20.27
2022-08-22T00:59:29.803Z,20.25
2022-08-22T01:02:16.780Z,20.23
2022-08-22T01:05:11.232Z,20.22
2022-08-22T01:08:08.362Z,20.25
2022-08-22T01:10:45.906Z,20.24
2022-08-22T01:13:30.954Z,20.26
2022-08-22T01:16:20.631Z,20.34
2022-08-22T01:18:58.839Z,20.43
2022-08-22T01:21:37.040Z,20.50
2022-08-22T01:24:10.636Z,20.59
2022-08-22T01:26:56.750Z,20.63
2022-08-22T01:29:44.109Z,20.64
2022-08-22T01:32:30.496Z,20.53
2022-08-22T01:35:24.404Z,20.37
2022-08-22T01:38:10.893Z,20.19
2022-08-22T01:40:57.988Z,20.14
2022-08-22T01:43:58.876Z,20.15
2022-08-22T01:46:23.806Z,20.07
2022-08-22T01:48:55.848Z,20.03
2022-08-22T01:51:58.920Z,20.03
2022-08-22T01:54:34.495Z,20.00
2022-08-22T01:57:05.433Z,20.04
2022-08-22T01:59:38.627Z,20.13
2022-08-22T02:02:13.378Z,20.20
2022-08-22T02:04:41.166Z,20.26
2022-08-22T02:07:09.063Z,20.36
2022-08-22T02:09:46.700Z,20.39
2022-08-22T02:12:33.603Z,20.39
2022-08-22T02:15:13.932Z,20.40
2022-08-22T02:17:53.833Z,20.33
2022-08-22T02:20:21.709Z,20.23
2022-08-22T02:22:52.644Z,20.23
2022-08-22T02:25:32.985Z,20.13
2022-08-22T02:28:24.048Z,19.89
2022-08-22T02:31:00.415Z,19.81
2022-08-22T02:33:46.757Z,19.87
2022-08-22T02:36:18.324Z,19.84
2022-08-22T02:38:56.107Z,19.80
2022-08-22T02:41:37.691Z,19.79
2022-08-22T02:44:14.626Z,19.82
2022-08-22T02:47:12.661Z,19.87
2022-08-22T02:49:43.826Z,19.90
2022-08-22T02:52:25.378Z,19.88
2022-08-22T02:55:28.459Z,19.89
2022-08-22T02:58:03.009Z,19.89
2022-08-22T03:00:41.100Z,19.92
2022-08-22T03:03:17.575Z,19.97
2022-08-22T03:05:45.460Z,19.98
2022-08-22T03:08:31.755Z,19.97
2022-08-22T03:11:18.347Z,20.04
2022-08-22T03:13:49.135Z,20.05
2022-08-22T03:16:22.689Z,20.04
2022-08-22T03:18:56.657Z,19.93
2022-08-22T03:21:30.444Z,19.87
2022-08-22T03:24:03.875Z,19.90
2022-08-22T03:26:37.256Z,19.87
2022-08-22T03:29:20.751Z,19.94
2022-08-22T03:32:07.763Z,20.01
2022-08-22T03:34:36.335Z,20.09
2022-08-22T03:37:16.137Z,20.16
2022-08-22T03:40:00.061Z,20.19
2022-08-22T03:42:44.687Z,20.19
2022-08-22T03:45:15.732Z,20.24
2022-08-22T03:47:52.227Z,20.31
2022-08-22T03:50:26.327Z,20.34
2022-08-22T03:53:15.298Z,20.40
2022-08-22T03:56:07.601Z,20.58
2022-08-22T03:58:41.365Z,20.81
2022-08-22T04:01:15.013Z,21.00
2022-08-22T04:03:42.800Z,21.19
2022-08-22T04:06:27.390Z,21.28
2022-08-22T04:09:04.814Z,21.33
2022-08-22T04:11:39.278Z,21.48
2022-08-22T04:14:16.060Z,21.65
2022-08-22T04:16:56.960Z,21.81
2022-08-22T04:19:24.716Z,21.98
2022-08-22T04:22:07.047Z,22.22
2022-08-22T04:24:37.625Z,22.56
2022-08-22T04:27:05.391Z,23.13
2022-08-22T04:29:39.367Z,23.60
2022-08-22T04:32:17.811Z,24.01
2022-08-22T04:35:08.651Z,24.43
2022-08-22T04:37:43.717Z,24.62
2022-08-22T04:40:20.043Z,24.05
2022-08-22T04:42:53.533Z,22.98
2022-08-22T04:45:30.057Z,21.78
2022-08-22T04:48:05.139Z,21.31
2022-08-22T04:50:43.308Z,21.04
2022-08-22T04:53:12.446Z,21.22
2022-08-22T04:55:47.144Z,21.41
2022-08-22T04:58:38.275Z,21.92
2022-08-22T05:01:16.742Z,22.28
2022-08-22T05:03:52.120Z,22.58
2022-08-22T05:06:22.301Z,22.83
2022-08-22T05:08:53.889Z,22.96
2022-08-22T05:11:23.433Z,23.11
2022-08-22T05:14:00.172Z,23.16
2022-08-22T05:16:39.214Z,23.06
2022-08-22T05:19:31.135Z,22.81
2022-08-22T05:22:01.113Z,22.44
2022-08-22T05:24:31.778Z,22.06
2022-08-22T05:27:03.393Z,22.61
2022-08-22T05:29:32.744Z,23.53
2022-08-22T05:32:05.823Z,24.41
2022-08-22T05:34:39.171Z,25.11
2022-08-22T05:37:14.235Z,25.77
2022-08-22T05:39:47.307Z,26.54
2022-08-22T05:42:37.530Z,26.86
2022-08-22T05:45:06.943Z,27.06
2022-08-22T05:47:41.795Z,27.23
2022-08-22T05:50:18.560Z,27.40
2022-08-22T05:53:08.540Z,27.24
2022-08-22T05:55:49.032Z,27.31
2022-08-22T05:58:35.547Z,27.65
2022-08-22T06:01:20.693Z,27.80
2022-08-22T06:03:48.952Z,27.85
2022-08-22T06:06:18.379Z,28.04
2022-08-22T06:08:55.860Z,27.96
2022-08-22T06:11:33.691Z,28.63
2022-08-22T06:14:13.552Z,29.50
2022-08-22T06:16:48.548Z,30.10
2022-08-22T06:19:19.917Z,30.09
2022-08-22T06:21:50.043Z,30.32
2022-08-22T06:24:24.161Z,30.15
2022-08-22T06:26:53.545Z,29.49
2022-08-22T06:29:36.493Z,28.95
2022-08-22T06:32:09.396Z,28.22
2022-08-22T06:34:39.854Z,27.85
2022-08-22T06:37:10.411Z,27.82
2022-08-22T06:39:43.619Z,27.75
2022-08-22T06:42:15.994Z,27.64
2022-08-22T06:44:47.627Z,27.36
2022-08-22T06:47:23.248Z,26.87
2022-08-22T06:49:52.951Z,26.75
2022-08-22T06:52:23.487Z,26.64
2022-08-22T06:54:57.604Z,26.68
2022-08-22T06:57:30.431Z,26.63
2022-08-22T06:59:59.294Z,26.42
2022-08-22T07:02:33.667Z,26.52
2022-08-22T07:05:01.854Z,26.54
2022-08-22T07:07:29.614Z,26.59
2022-08-22T07:09:57.782Z,26.88
2022-08-22T07:12:31.026Z,26.80
2022-08-22T07:15:01.042Z,27.09
2022-08-22T07:17:30.664Z,27.48
2022-08-22T07:20:01.675Z,27.82
2022-08-22T07:22:31.263Z,28.11
2022-08-22T07:25:11.706Z,28.38
2022-08-22T07:27:54.756Z,28.18
2022-08-22T07:30:27.352Z,28.49
2022-08-22T07:33:25.219Z,28.75
2022-08-22T07:36:01.936Z,29.00
2022-08-22T07:38:43.035Z,28.98
2022-08-22T07:41:20.219Z,28.95
2022-08-22T07:43:50.688Z,29.19
2022-08-22T07:46:18.400Z,29.62
2022-08-22T07:49:08.034Z,29.75
2022-08-22T07:51:43.283Z,29.45
2022-08-22T07:54:15.723Z,29.26
2022-08-22T07:56:46.538Z,28.83
2022-08-22T07:59:17.677Z,28.65
2022-08-22T08:01:47.768Z,28.54
2022-08-22T08:04:19.096Z,28.51
2022-08-22T08:06:49.061Z,28.56
2022-08-22T08:09:19.032Z,28.99
2022-08-22T08:11:49.470Z,29.56
2022-08-22T08:14:20.024Z,30.28
2022-08-22T08:17:07.401Z,30.73
2022-08-22T08:19:38.434Z,30.88
2022-08-22T08:22:06.790Z,30.44
2022-08-22T08:24:40.805Z,30.12
2022-08-22T08:27:33.889Z,30.40
2022-08-22T08:30:15.795Z,30.39
2022-08-22T08:32:47.702Z,30.02
2022-08-22T08:35:16.673Z,29.84
2022-08-22T08:37:49.595Z,29.57
2022-08-22T08:40:48.538Z,29.03
2022-08-22T08:43:29.673Z,28.99
2022-08-22T08:46:09.543Z,29.08
2022-08-22T08:48:50.311Z,29.16
2022-08-22T08:51:36.409Z,29.20
2022-08-22T08:54:05.643Z,28.86
2022-08-22T08:56:38.177Z,29.02
2022-08-22T08:59:27.258Z,28.96
2022-08-22T09:01:57.798Z,29.01
2022-08-22T09:04:25.581Z,29.10
2022-08-22T09:06:56.674Z,29.18
2022-08-22T09:09:33.451Z,29.24
2022-08-22T09:12:17.157Z,29.21
2022-08-22T09:15:03.483Z,28.48
2022-08-22T09:17:39.724Z,28.30
2022-08-22T09:20:17.632Z,28.07
2022-08-22T09:22:58.420Z,28.09
2022-08-22T09:25:39.902Z,28.54
2022-08-22T09:28:19.897Z,28.76
2022-08-22T09:31:17.002Z,28.43
2022-08-22T09:34:05.133Z,27.82
2022-08-22T09:36:44.683Z,27.43
2022-08-22T09:39:18.415Z,27.10
2022-08-22T09:42:00.142Z,27.37
2022-08-22T09:44:52.442Z,27.63
2022-08-22T09:47:27.208Z,27.79
2022-08-22T09:50:09.887Z,27.83
2022-08-22T09:52:46.975Z,27.74
2022-08-22T09:55:35.690Z,28.02
2022-08-22T09:58:11.362Z,28.58
2022-08-22T10:00:47.480Z,28.71
2022-08-22T10:03:22.871Z,28.66
2022-08-22T10:05:57.156Z,28.43
2022-08-22T10:08:52.346Z,28.75
2022-08-22T10:11:28.861Z,29.43
2022-08-22T10:14:08.260Z,29.88
2022-08-22T10:16:41.976Z,29.09
2022-08-22T10:19:28.503Z,28.80
2022-08-22T10:22:02.570Z,29.08
2022-08-22T10:24:43.703Z,29.64
2022-08-22T10:27:15.129Z,30.12
2022-08-22T10:29:46.097Z,30.67
2022-08-22T10:32:17.329Z,30.57
2022-08-22T10:34:48.519Z,29.94
2022-08-22T10:37:23.731Z,30.05
2022-08-22T10:40:02.552Z,30.05
2022-08-22T10:42:35.750Z,28.90
2022-08-22T10:45:23.727Z,29.13
2022-08-22T10:48:08.591Z,29.16
2022-08-22T10:50:50.088Z,28.00
2022-08-22T10:53:30.379Z,28.16
2022-08-22T10:56:04.572Z,28.74
2022-08-22T10:58:36.613Z,28.03
2022-08-22T11:01:15.133Z,27.35
2022-08-22T11:03:55.708Z,28.24
2022-08-22T11:06:26.582Z,29.19
2022-08-22T11:09:00.381Z,29.18
2022-08-22T11:11:40.415Z,28.89
2022-08-22T11:14:24.684Z,28.56
2022-08-22T11:17:23.654Z,28.85
2022-08-22T11:19:55.232Z,28.79
2022-08-22T11:22:23.636Z,28.99
2022-08-22T11:25:12.408Z,29.41
2022-08-22T11:27:46.875Z,29.41
2022-08-22T11:30:29.449Z,29.99
2022-08-22T11:33:00.943Z,30.36
2022-08-22T11:35:37.147Z,30.12
2022-08-22T11:38:20.397Z,31.03
2022-08-22T11:40:52.182Z,31.70
2022-08-22T11:43:40.344Z,30.34
2022-08-22T11:46:20.682Z,28.87
2022-08-22T11:48:54.616Z,28.55
2022-08-22T11:51:46.088Z,29.18
2022-08-22T11:54:30.890Z,30.32
2022-08-22T11:57:05.533Z,30.42
2022-08-22T11:59:43.209Z,30.43
2022-08-22T12:02:21.431Z,30.53
2022-08-22T12:04:57.586Z,30.25
2022-08-22T12:07:32.697Z,30.22
2022-08-22T12:10:15.307Z,29.20
2022-08-22T12:12:53.726Z,29.23
2022-08-22T12:15:24.703Z,29.20
2022-08-22T12:18:13.486Z,29.69
2022-08-22T12:20:45.357Z,29.67
2022-08-22T12:23:16.157Z,29.60
2022-08-22T12:25:55.808Z,29.31
2022-08-22T12:28:35.420Z,28.93
2022-08-22T12:31:06.478Z,28.54
2022-08-22T12:33:57.585Z,28.12
2022-08-22T12:36:34.339Z,28.19
2022-08-22T12:39:24.356Z,28.13
2022-08-22T12:42:07.619Z,27.99
2022-08-22T12:44:42.535Z,28.21
2022-08-22T12:47:22.557Z,28.29
2022-08-22T12:49:52.558Z,27.78
2022-08-22T12:52:34.940Z,27.79
2022-08-22T12:55:03.596Z,28.01
2022-08-22T12:57:34.295Z,28.22
2022-08-22T13:00:08.868Z,28.48
2022-08-22T13:02:41.905Z,28.66
2022-08-22T13:05:19.886Z,28.59
2022-08-22T13:07:54.614Z,28.55
2022-08-22T13:10:26.140Z,28.67
2022-08-22T13:12:56.831Z,28.74
2022-08-22T13:15:30.210Z,28.62
2022-08-22T13:18:18.944Z,28.53
2022-08-22T13:20:51.173Z,28.64
2022-08-22T13:23:27.776Z,28.94
2022-08-22T13:26:01.195Z,29.05
2022-08-22T13:28:30.906Z,29.00
2022-08-22T13:31:00.039Z,29.34
2022-08-22T13:33:33.400Z,29.86
2022-08-22T13:36:10.951Z,30.10
2022-08-22T13:38:46.567Z,30.45
2022-08-22T13:41:34.904Z,30.49
2022-08-22T13:44:08.873Z,30.51
2022-08-22T13:46:48.278Z,30.12
2022-08-22T13:49:31.927Z,30.00
2022-08-22T13:52:28.936Z,29.98
2022-08-22T13:55:12.407Z,29.92
2022-08-22T13:57:52.987Z,29.21
2022-08-22T14:00:35.800Z,28.74
2022-08-22T14:03:12.287Z,29.07
2022-08-22T14:05:43.116Z,29.40
2022-08-22T14:08:20.453Z,29.69
2022-08-22T14:10:55.583Z,30.00
2022-08-22T14:13:36.796Z,30.31
2022-08-22T14:16:10.286Z,30.26
2022-08-22T14:18:45.722Z,29.88
2022-08-22T14:21:17.364Z,29.62
2022-08-22T14:23:45.898Z,29.35
2022-08-22T14:26:32.826Z,28.95
2022-08-22T14:29:05.716Z,28.61
2022-08-22T14:31:36.109Z,28.36
2022-08-22T14:34:10.274Z,28.19
2022-08-22T14:36:38.786Z,27.91
2022-08-22T14:39:35.758Z,27.80
2022-08-22T14:42:06.305Z,27.77
2022-08-22T14:44:55.718Z,27.78
2022-08-22T14:47:40.387Z,27.68
2022-08-22T14:50:40.188Z,27.64
2022-08-22T14:53:19.302Z,27.59
2022-08-22T14:56:05.655Z,27.57
2022-08-22T14:58:38.053Z,27.53
2022-08-22T15:01:13.894Z,27.58
2022-08-22T15:03:44.281Z,27.62
2022-08-22T15:06:14.647Z,27.65
2022-08-22T15:08:46.209Z,27.66
2022-08-22T15:11:21.240Z,27.71
2022-08-22T15:13:59.158Z,27.79
2022-08-22T15:16:36.982Z,27.74
2022-08-22T15:19:27.257Z,27.68
2022-08-22T15:22:04.288Z,27.63
2022-08-22T15:24:32.938Z,27.53
2022-08-22T15:27:01.112Z,27.37
2022-08-22T15:29:44.334Z,27.25
2022-08-22T15:32:12.305Z,27.01
2022-08-22T15:34:47.583Z,26.83
2022-08-22T15:37:20.933Z,26.70
2022-08-22T15:40:02.943Z,26.60
2022-08-22T15:42:44.322Z,26.52
2022-08-22T15:45:19.733Z,26.46
2022-08-22T15:47:50.054Z,26.47
2022-08-22T15:50:36.988Z,26.50
2022-08-22T15:53:09.526Z,26.60
2022-08-22T15:55:37.986Z,26.75
2022-08-22T15:58:09.265Z,26.92
2022-08-22T16:00:45.716Z,27.12
2022-08-22T16:03:24.640Z,27.12
2022-08-22T16:05:55.791Z,27.13
2022-08-22T16:08:32.723Z,27.29
2022-08-22T16:11:03.969Z,27.31
2022-08-22T16:13:38.064Z,27.29
2022-08-22T16:16:08.624Z,27.25
2022-08-22T16:18:39.811Z,27.21
2022-08-22T16:21:09.116Z,27.12
2022-08-22T16:23:49.763Z,27.04
2022-08-22T16:26:37.132Z,26.94
2022-08-22T16:29:17.300Z,26.85
2022-08-22T16:31:45.846Z,26.78
2022-08-22T16:34:16.462Z,26.70
2022-08-22T16:36:53.659Z,26.58
2022-08-22T16:39:21.630Z,26.50
2022-08-22T16:41:52.540Z,26.48
2022-08-22T16:44:23.164Z,26.46
2022-08-22T16:46:52.835Z,26.48
2022-08-22T16:49:32.347Z,26.45
2022-08-22T16:52:18.986Z,26.41
2022-08-22T16:54:48.967Z,26.36
2022-08-22T16:57:20.055Z,26.33
2022-08-22T17:00:10.104Z,26.30
2022-08-22T17:03:04.180Z,26.25
2022-08-22T17:05:45.586Z,26.17
2022-08-22T17:08:16.628Z,26.08
2022-08-22T17:11:03.253Z,26.02
2022-08-22T17:14:06.395Z,25.87
2022-08-22T17:16:34.139Z,25.27
2022-08-22T17:19:05.184Z,24.68
2022-08-22T17:21:39.869Z,24.16
2022-08-22T17:24:32.270Z,23.63
2022-08-22T17:27:20.361Z,22.73
2022-08-22T17:29:54.200Z,21.71
2022-08-22T17:32:31.174Z,21.13
2022-08-22T17:35:08.111Z,20.81
2022-08-22T17:37:54.603Z,20.59
2022-08-22T17:40:33.663Z,20.45
2022-08-22T17:43:04.303Z,20.39
2022-08-22T17:45:34.954Z,20.32
2022-08-22T17:48:07.937Z,20.24
2022-08-22T17:50:44.873Z,20.19
2022-08-22T17:53:22.549Z,20.19
2022-08-22T17:55:57.925Z,20.17
2022-08-22T17:58:37.366Z,20.15
2022-08-22T18:01:14.650Z,20.13
2022-08-22T18:03:50.646Z,20.13
2022-08-22T18:06:18.919Z,20.18
2022-08-22T18:11:46.348Z,20.24
2022-08-22T18:14:19.832Z,20.29
2022-08-22T18:16:50.367Z,20.36
2022-08-22T18:19:24.402Z,20.44
2022-08-22T18:22:04.316Z,20.49
2022-08-22T18:24:35.279Z,20.49
2022-08-22T18:27:06.190Z,20.53
2022-08-22T18:29:42.851Z,20.57
2022-08-22T18:32:19.220Z,20.62
2022-08-22T18:34:56.371Z,20.64
2022-08-22T18:37:41.677Z,20.64
2022-08-22T18:40:15.550Z,20.63
2022-08-22T18:42:47.658Z,20.64
2022-08-22T18:45:17.413Z,20.65
2022-08-22T18:47:54.417Z,20.61
2022-08-22T18:50:28.245Z,20.57
2022-08-22T18:52:57.617Z,20.56
2022-08-22T18:55:27.887Z,20.57
2022-08-22T18:57:55.617Z,20.63
2022-08-22T19:00:46.324Z,20.62
2022-08-22T19:03:17.505Z,20.62
2022-08-22T19:05:45.811Z,20.62
2022-08-22T19:08:26.316Z,20.64
2022-08-22T19:11:05.945Z,20.66
2022-08-22T19:13:52.530Z,20.69
2022-08-22T19:16:56.009Z,20.67
2022-08-22T19:19:57.891Z,20.68
2022-08-22T19:22:28.138Z,20.66
2022-08-22T19:25:10.706Z,20.59
2022-08-22T19:27:40.807Z,20.51
2022-08-22T19:30:28.819Z,20.47
2022-08-22T19:33:08.646Z,20.43
2022-08-22T19:35:45.573Z,20.36
2022-08-22T19:38:33.306Z,20.30
2022-08-22T19:41:01.728Z,20.27
2022-08-22T19:43:38.155Z,20.24
2022-08-22T19:46:08.635Z,20.23
2022-08-22T19:48:45.394Z,20.22
2022-08-22T19:51:16.080Z,20.22
2022-08-22T19:53:51.126Z,20.21
2022-08-22T19:56:35.903Z,20.20
2022-08-22T19:59:21.428Z,20.18
2022-08-22T20:02:07.550Z,20.18
2022-08-22T20:04:35.264Z,20.14
2022-08-22T20:07:03.088Z,20.12
2022-08-22T20:09:59.307Z,20.14
2022-08-22T20:12:30.358Z,20.13
2022-08-22T20:15:10.494Z,20.09
2022-08-22T20:17:40.420Z,20.02
2022-08-22T20:20:18.415Z,19.94
2022-08-22T20:23:10.205Z,19.91
2022-08-22T20:25:49.596Z,19.94
2022-08-22T20:28:40.238Z,19.88
2022-08-22T20:31:18.492Z,19.82
2022-08-22T20:33:47.061Z,19.73
2022-08-22T20:36:27.600Z,19.70
2022-08-22T20:39:06.146Z,19.70
2022-08-22T20:41:36.710Z,19.54
2022-08-22T20:44:04.971Z,19.42
2022-08-22T20:46:46.324Z,19.38
2022-08-22T20:49:33.076Z,19.37
2022-08-22T20:52:03.465Z,19.26
2022-08-22T20:54:33.139Z,19.15
2022-08-22T20:57:02.161Z,19.19
2022-08-22T20:59:38.952Z,19.19
2022-08-22T21:02:10.605Z,19.10
2022-08-22T21:05:00.280Z,19.09
2022-08-22T21:07:30.227Z,19.10
2022-08-22T21:10:22.583Z,19.08
2022-08-22T21:13:09.691Z,19.06
2022-08-22T21:15:45.433Z,19.12
2022-08-22T21:18:14.919Z,19.13
2022-08-22T21:20:42.911Z,19.19
2022-08-22T21:23:13.998Z,19.26
2022-08-22T21:25:57.606Z,19.32
2022-08-22T21:28:31.246Z,19.33
2022-08-22T21:31:01.806Z,19.33
2022-08-22T21:33:29.640Z,19.32
2022-08-22T21:35:59.335Z,19.30
2022-08-22T21:38:27.735Z,19.31
2022-08-22T21:41:01.927Z,19.38
2022-08-22T21:43:32.852Z,19.47
2022-08-22T21:46:00.879Z,19.47
2022-08-22T21:48:35.004Z,19.42
2022-08-22T21:51:21.555Z,19.41
2022-08-22T21:53:49.774Z,19.45
2022-08-22T21:56:37.526Z,19.54
2022-08-22T21:59:24.979Z,19.60
2022-08-22T22:01:53.631Z,19.64
2022-08-22T22:04:23.307Z,19.69
2022-08-22T22:06:51.131Z,19.70
2022-08-22T22:09:19.207Z,19.65
2022-08-22T22:11:47.340Z,19.56
2022-08-22T22:14:15.168Z,19.48
2022-08-22T22:16:43.015Z,19.40
2022-08-22T22:19:11.015Z,19.36
2022-08-22T22:21:38.910Z,19.34
2022-08-22T22:24:06.975Z,19.35
2022-08-22T22:26:34.884Z,19.37
2022-08-22T22:29:03.388Z,19.39
2022-08-22T22:31:31.735Z,19.41
2022-08-22T22:34:01.972Z,19.38
2022-08-22T22:36:30.228Z,19.34
2022-08-22T22:38:58.878Z,19.29
2022-08-22T22:41:27.053Z,19.29
2022-08-22T22:43:55.445Z,19.31
2022-08-22T22:46:23.790Z,19.33
2022-08-22T22:48:51.861Z,19.39
2022-08-22T22:51:19.992Z,19.42
2022-08-22T22:53:48.099Z,19.44
2022-08-22T22:56:21.238Z,19.42
2022-08-22T22:59:00.630Z,19.37
2022-08-22T23:01:31.606Z,19.36
2022-08-22T23:04:05.590Z,19.33
2022-08-22T23:06:34.655Z,19.28
2022-08-22T23:09:02.671Z,19.22
2022-08-22T23:11:31.159Z,19.17
2022-08-22T23:13:59.007Z,19.05
2022-08-22T23:16:28.828Z,18.94
2022-08-22T23:18:56.891Z,18.83
2022-08-22T23:21:26.627Z,18.77
2022-08-22T23:23:55.455Z,18.71
2022-08-22T23:26:23.953Z,18.62
2022-08-22T23:28:52.181Z,18.53
2022-08-22T23:31:31.251Z,18.50
2022-08-22T23:34:05.165Z,18.45
2022-08-22T23:36:33.454Z,18.40
2022-08-22T23:39:01.303Z,18.35
2022-08-22T23:41:29.367Z,18.27
2022-08-22T23:43:57.426Z,18.23
2022-08-22T23:46:25.939Z,18.21
2022-08-22T23:48:54.500Z,18.18
2022-08-22T23:51:24.030Z,18.16
2022-08-22T23:53:52.706Z,18.22
2022-08-22T23:56:29.488Z,18.31
2022-08-22T23:58:58.390Z,18.37
